Time;durP1;ratioP1;P1;durP2;ratioP2;P2;SDS_P1;SDS_P2;PMS_P1;PMS_P2;Temp;Humidity;BMP_temperature;BMP_pressure;BME280_temperature;BME280_humidity;BME280_pressure;Samples;Min_cycle;Max_cycle;Signal;HPM_P1;HPM_P2
2023/03/28 00:01:17;;;;;;;8.30;2.05;;;3.10;99.90;;;;;;5072296;28;20076;-63
2023/03/28 00:03:44;;;;;;;6.13;2.13;;;3.20;99.90;;;;;;5072170;28;20095;-65
2023/03/28 00:06:15;;;;;;;10.07;2.30;;;3.20;99.90;;;;;;5072546;28;20423;-64
2023/03/28 00:08:44;;;;;;;10.55;2.63;;;3.30;99.90;;;;;;5072608;28;20058;-63
2023/03/28 00:11:20;;;;;;;7.55;2.45;;;3.30;99.90;;;;;;5072088;28;20059;-65
2023/03/28 00:13:50;;;;;;;7.45;2.00;;;3.30;99.90;;;;;;5072291;28;20052;-65
2023/03/28 00:16:16;;;;;;;7.15;2.00;;;3.40;99.90;;;;;;5073298;28;20040;-63
2023/03/28 00:18:49;;;;;;;7.13;1.58;;;3.40;99.90;;;;;;5071501;28;20053;-63
2023/03/28 00:21:36;;;;;;;11.30;3.38;;;3.40;99.90;;;;;;5070363;28;20087;-64
2023/03/28 00:24:13;;;;;;;7.53;1.70;;;3.40;99.90;;;;;;5071531;28;20049;-63
2023/03/28 00:26:41;;;;;;;12.20;2.15;;;3.40;99.90;;;;;;5072845;28;20054;-65
2023/03/28 00:29:14;;;;;;;10.35;3.35;;;3.40;99.90;;;;;;5054972;28;20045;-63
2023/03/28 00:31:48;;;;;;;10.15;2.08;;;3.40;99.90;;;;;;5072965;28;20067;-64
2023/03/28 00:34:15;;;;;;;7.97;2.08;;;3.30;99.90;;;;;;5072570;28;20052;-65
2023/03/28 00:36:49;;;;;;;5.78;2.10;;;3.20;99.90;;;;;;5073363;28;20052;-64
2023/03/28 00:39:16;;;;;;;10.38;2.70;;;3.30;99.90;;;;;;5038562;28;20056;-65
2023/03/28 00:41:43;;;;;;;4.82;2.08;;;3.20;99.90;;;;;;5071885;28;20048;-64
2023/03/28 00:44:37;;;;;;;7.40;2.70;;;3.20;99.90;;;;;;5054369;28;20053;-65
2023/03/28 00:47:07;;;;;;;7.35;3.67;;;3.20;99.90;;;;;;5071151;28;20106;-63
2023/03/28 00:49:35;;;;;;;6.65;2.28;;;3.10;99.90;;;;;;5072286;28;20049;-64
2023/03/28 00:52:03;;;;;;;7.70;2.40;;;3.10;99.90;;;;;;5054772;28;20530;-65
2023/03/28 00:54:32;;;;;;;6.80;2.25;;;3.10;99.90;;;;;;5071045;28;20182;-64
2023/03/28 00:57:01;;;;;;;6.57;1.73;;;3.00;99.90;;;;;;5071285;28;20053;-65
2023/03/28 00:59:31;;;;;;;6.72;2.63;;;3.00;99.90;;;;;;5071062;28;20056;-65
2023/03/28 01:01:58;;;;;;;8.00;2.22;;;3.00;99.90;;;;;;5070818;28;20055;-64
2023/03/28 01:04:45;;;;;;;9.18;2.13;;;3.00;99.90;;;;;;5070789;28;20048;-65
2023/03/28 01:07:12;;;;;;;9.85;2.30;;;3.00;99.90;;;;;;5071038;28;20045;-64
2023/03/28 01:09:39;;;;;;;8.13;2.17;;;3.00;99.90;;;;;;5054784;28;20373;-65
2023/03/28 01:12:06;;;;;;;7.28;2.65;;;3.00;99.90;;;;;;5071837;28;20049;-65
2023/03/28 01:14:34;;;;;;;9.77;2.28;;;3.00;99.90;;;;;;5071640;28;20060;-64
2023/03/28 01:17:04;;;;;;;6.05;1.70;;;3.00;99.90;;;;;;5070148;28;20101;-64
2023/03/28 01:19:57;;;;;;;6.32;1.90;;;3.00;99.90;;;;;;5054531;28;20052;-64
2023/03/28 01:22:53;;;;;;;5.82;1.75;;;3.00;99.90;;;;;;5070231;28;20049;-63
2023/03/28 01:25:19;;;;;;;9.40;2.00;;;3.00;99.90;;;;;;5050928;28;20049;-64
2023/03/28 01:28:04;;;;;;;4.97;1.50;;;3.10;99.90;;;;;;5050789;28;20489;-64
2023/03/28 01:31:02;;;;;;;7.47;1.88;;;3.00;99.90;;;;;;5071538;28;20437;-64
2023/03/28 01:33:31;;;;;;;5.93;1.58;;;3.00;99.90;;;;;;5070516;28;20113;-65
2023/03/28 01:36:07;;;;;;;7.18;2.17;;;3.00;99.90;;;;;;5070809;28;20062;-64
2023/03/28 01:38:37;;;;;;;5.75;1.52;;;3.10;99.90;;;;;;5070921;28;20045;-64
2023/03/28 01:41:10;;;;;;;6.97;2.50;;;3.10;99.90;;;;;;5070522;28;20377;-64
2023/03/28 01:43:46;;;;;;;8.05;2.03;;;3.10;99.90;;;;;;5053875;28;20459;-64
2023/03/28 01:47:06;;;;;;;9.15;2.35;;;3.10;99.90;;;;;;5070640;28;20630;-65
2023/03/28 01:49:45;;;;;;;;;;;3.00;99.90;;;;;;4958374;28;20046;-64
2023/03/28 01:52:30;;;;;;;7.30;2.45;;;3.00;99.90;;;;;;5071409;28;19924;-64
2023/03/28 01:55:11;;;;;;;11.63;2.50;;;3.00;99.90;;;;;;5071515;28;20388;-64
2023/03/28 01:57:51;;;;;;;7.45;2.10;;;2.90;99.90;;;;;;5053492;28;20044;-64
2023/03/28 02:00:30;;;;;;;7.40;2.00;;;2.90;99.90;;;;;;5054178;28;20069;-63
2023/03/28 02:03:13;;;;;;;5.85;1.33;;;2.80;99.90;;;;;;5069936;28;20098;-63
2023/03/28 02:05:41;;;;;;;9.75;2.33;;;2.90;99.90;;;;;;5072250;28;20049;-63
2023/03/28 02:08:10;;;;;;;10.35;2.50;;;2.90;99.90;;;;;;5069942;28;20380;-63
2023/03/28 02:10:40;;;;;;;8.10;1.80;;;2.80;99.90;;;;;;5070569;28;20075;-64
2023/03/28 02:13:13;;;;;;;7.38;1.73;;;2.80;99.90;;;;;;5069992;28;20052;-64
2023/03/28 02:15:44;;;;;;;8.85;2.58;;;2.80;99.90;;;;;;5071493;28;20053;-63
2023/03/28 02:18:19;;;;;;;11.13;2.70;;;2.80;99.90;;;;;;5053039;28;20090;-65
2023/03/28 02:20:55;;;;;;;7.45;1.80;;;2.70;99.90;;;;;;5069870;28;20477;-63
2023/03/28 02:23:42;;;;;;;6.50;2.00;;;2.70;99.90;;;;;;5070920;28;20063;-64
2023/03/28 02:26:11;;;;;;;9.32;1.75;;;2.70;99.90;;;;;;5071471;28;20048;-64
2023/03/28 02:28:39;;;;;;;7.03;2.00;;;2.60;99.90;;;;;;5070989;28;20044;-64
2023/03/28 02:31:06;;;;;;;9.80;1.92;;;2.60;99.90;;;;;;5073466;28;20056;-63
2023/03/28 02:33:36;;;;;;;9.50;2.50;;;2.60;99.90;;;;;;5074684;28;20388;-63
2023/03/28 02:36:22;;;;;;;4.70;1.60;;;2.60;99.90;;;;;;5075097;28;20040;-63
2023/03/28 02:39:29;;;;;;;5.35;1.95;;;2.60;99.90;;;;;;5074838;28;20048;-64
2023/03/28 02:42:09;;;;;;;8.15;2.20;;;2.60;99.90;;;;;;5075067;28;20060;-64
2023/03/28 02:45:03;;;;;;;5.75;2.58;;;2.60;99.90;;;;;;5053163;28;20048;-64
2023/03/28 02:47:55;;;;;;;7.15;2.55;;;2.50;99.90;;;;;;5066903;28;20608;-63
2023/03/28 02:50:40;;;;;;;10.30;1.92;;;2.60;99.90;;;;;;5056997;28;20052;-63
2023/03/28 02:53:33;;;;;;;9.75;2.63;;;2.50;99.90;;;;;;5074356;28;20044;-65
2023/03/28 02:56:16;;;;;;;7.35;2.35;;;2.60;99.90;;;;;;5073938;28;20097;-65
2023/03/28 02:59:08;;;;;;;8.32;1.92;;;2.60;99.90;;;;;;5056515;28;20429;-64
2023/03/28 03:01:41;;;;;;;6.90;1.88;;;2.60;99.90;;;;;;5056604;28;20083;-65
2023/03/28 03:04:07;;;;;;;8.45;3.08;;;2.70;99.90;;;;;;5073233;28;20067;-65
2023/03/28 03:06:41;;;;;;;9.85;1.95;;;2.70;99.90;;;;;;5073494;28;20449;-64
2023/03/28 03:09:08;;;;;;;6.78;1.70;;;2.80;99.90;;;;;;5073199;28;20105;-63
2023/03/28 03:11:34;;;;;;;7.80;2.90;;;2.80;99.90;;;;;;5073305;28;20426;-63
2023/03/28 03:14:01;;;;;;;8.30;1.95;;;2.90;99.90;;;;;;5073142;28;20052;-64
2023/03/28 03:16:28;;;;;;;9.02;2.28;;;2.90;99.90;;;;;;5072818;28;20358;-63
2023/03/28 03:18:55;;;;;;;8.57;2.47;;;2.90;99.90;;;;;;5073277;28;20377;-63
2023/03/28 03:21:24;;;;;;;3.80;2.13;;;2.90;99.90;;;;;;5073979;28;20048;-64
2023/03/28 03:23:55;;;;;;;7.50;1.80;;;2.90;99.90;;;;;;5073907;28;20372;-64
2023/03/28 03:26:21;;;;;;;3.85;1.58;;;2.90;99.90;;;;;;5073042;28;20083;-64
2023/03/28 03:28:48;;;;;;;6.28;2.17;;;2.90;99.90;;;;;;5072818;28;20045;-64
2023/03/28 03:31:16;;;;;;;8.15;2.72;;;2.80;99.90;;;;;;5072906;28;20070;-64
2023/03/28 03:33:42;;;;;;;6.43;1.50;;;2.80;99.90;;;;;;5072610;28;20059;-63
2023/03/28 03:36:17;;;;;;;10.50;2.72;;;2.80;99.90;;;;;;5073190;28;20069;-65
2023/03/28 03:38:47;;;;;;;8.00;2.15;;;2.80;99.90;;;;;;5072392;28;20430;-65
2023/03/28 03:41:20;;;;;;;8.55;1.85;;;2.70;99.90;;;;;;5072213;28;20041;-64
2023/03/28 03:43:46;;;;;;;6.70;2.47;;;2.70;99.90;;;;;;5072459;28;20051;-64
2023/03/28 03:46:12;;;;;;;6.43;1.60;;;2.60;99.90;;;;;;5072840;28;20045;-64
2023/03/28 03:48:39;;;;;;;7.70;1.60;;;2.40;99.90;;;;;;5072334;28;20048;-64
2023/03/28 03:51:06;;;;;;;5.95;2.53;;;2.30;99.90;;;;;;5073561;28;20473;-63
2023/03/28 03:53:34;;;;;;;3.35;1.90;;;2.30;99.90;;;;;;5073513;28;20365;-64
2023/03/28 03:56:01;;;;;;;5.72;2.03;;;2.20;99.90;;;;;;5072783;28;20369;-64
2023/03/28 03:58:27;;;;;;;8.23;2.10;;;2.20;99.90;;;;;;5072216;28;20110;-63
2023/03/28 04:00:54;;;;;;;7.22;1.92;;;2.20;99.90;;;;;;5072274;28;20065;-63
2023/03/28 04:03:23;;;;;;;9.07;1.45;;;2.20;99.90;;;;;;5071991;28;20040;-65
2023/03/28 04:05:51;;;;;;;7.63;2.03;;;2.20;99.90;;;;;;5072711;28;20045;-65
2023/03/28 04:08:24;;;;;;;5.30;2.40;;;2.30;99.90;;;;;;5072136;28;20052;-64
2023/03/28 04:10:51;;;;;;;5.50;2.42;;;2.30;99.90;;;;;;5072142;28;20048;-65
2023/03/28 04:13:17;;;;;;;8.02;1.83;;;2.30;99.90;;;;;;5072016;28;20045;-63
2023/03/28 04:15:46;;;;;;;6.80;2.00;;;2.40;99.90;;;;;;5073199;28;20059;-63
2023/03/28 04:18:14;;;;;;;4.15;1.58;;;2.40;99.90;;;;;;5072469;28;20413;-64
2023/03/28 04:20:42;;;;;;;3.75;2.28;;;2.40;99.90;;;;;;5051945;28;20449;-64
2023/03/28 04:23:09;;;;;;;6.95;2.13;;;2.40;99.90;;;;;;5034437;28;20045;-63
2023/03/28 04:25:35;;;;;;;6.07;1.70;;;2.50;99.90;;;;;;5034916;28;20045;-64
2023/03/28 04:28:02;;;;;;;7.32;2.53;;;2.40;99.90;;;;;;5034771;28;20057;-63
2023/03/28 04:30:28;;;;;;;6.45;2.58;;;2.50;99.90;;;;;;5035590;28;20102;-63
2023/03/28 04:32:54;;;;;;;5.85;1.98;;;2.40;99.90;;;;;;5034881;28;20351;-63
2023/03/28 04:35:22;;;;;;;6.20;1.80;;;2.50;99.90;;;;;;5033829;28;20049;-65
2023/03/28 04:37:48;;;;;;;4.68;3.22;;;2.50;99.90;;;;;;5044080;28;20479;-63
2023/03/28 04:40:16;;;;;;;6.25;2.45;;;2.50;99.90;;;;;;5041486;28;20041;-63
2023/03/28 04:42:43;;;;;;;6.18;3.75;;;2.50;99.90;;;;;;5017588;28;20044;-63
2023/03/28 04:45:10;;;;;;;6.18;2.10;;;2.50;99.90;;;;;;5017213;28;20045;-63
2023/03/28 04:47:38;;;;;;;4.55;2.00;;;2.60;99.90;;;;;;5034441;28;20108;-63
2023/03/28 04:50:09;;;;;;;5.35;2.35;;;2.50;99.90;;;;;;5041025;28;20054;-63
2023/03/28 04:52:36;;;;;;;6.53;2.38;;;2.50;99.90;;;;;;5034096;28;20373;-63
2023/03/28 04:55:03;;;;;;;4.35;2.97;;;2.60;99.90;;;;;;5043152;28;20064;-63
2023/03/28 04:57:29;;;;;;;6.22;2.47;;;2.60;99.90;;;;;;5033405;28;20060;-63
2023/03/28 04:59:56;;;;;;;7.28;3.03;;;2.60;99.90;;;;;;5059900;28;20048;-63
2023/03/28 05:02:29;;;;;;;6.50;2.58;;;2.50;99.90;;;;;;5048577;28;20045;-63
2023/03/28 05:04:55;;;;;;;7.63;2.55;;;2.60;99.90;;;;;;5037230;28;20063;-63
2023/03/28 05:07:26;;;;;;;8.55;3.20;;;2.60;99.90;;;;;;5034483;28;20049;-64
2023/03/28 05:09:52;;;;;;;7.47;2.70;;;2.50;99.90;;;;;;5032556;28;20041;-64
2023/03/28 05:12:18;;;;;;;7.28;3.03;;;2.50;99.90;;;;;;5052408;28;20056;-63
2023/03/28 05:14:45;;;;;;;6.32;2.72;;;2.40;99.90;;;;;;5032290;28;20044;-63
2023/03/28 05:17:11;;;;;;;7.78;3.05;;;2.40;99.90;;;;;;5034005;28;20130;-64
2023/03/28 05:19:37;;;;;;;7.28;2.75;;;2.30;99.90;;;;;;5034290;28;20052;-62
2023/03/28 05:22:03;;;;;;;4.75;2.10;;;2.40;99.90;;;;;;5066134;28;20045;-64
2023/03/28 05:24:30;;;;;;;8.65;3.40;;;2.40;99.90;;;;;;5070545;28;20522;-62
2023/03/28 05:26:57;;;;;;;7.47;2.90;;;2.40;99.90;;;;;;5070346;28;20434;-64
2023/03/28 05:29:23;;;;;;;5.88;2.05;;;2.50;99.90;;;;;;5071847;28;20040;-64
2023/03/28 05:31:51;;;;;;;6.72;2.72;;;2.50;99.90;;;;;;5069015;28;20133;-65
2023/03/28 05:34:17;;;;;;;4.47;2.30;;;2.50;99.90;;;;;;5068062;28;20052;-64
2023/03/28 05:36:44;;;;;;;5.65;2.65;;;2.50;99.90;;;;;;5065785;28;20040;-64
2023/03/28 05:39:16;;;;;;;7.32;2.60;;;2.50;99.90;;;;;;5065422;28;20513;-64
2023/03/28 05:41:43;;;;;;;9.38;3.95;;;2.50;99.90;;;;;;5048856;28;20449;-64
2023/03/28 05:44:10;;;;;;;9.77;3.53;;;2.50;99.90;;;;;;5059330;28;20297;-64
2023/03/28 05:46:36;;;;;;;11.65;3.42;;;2.60;99.90;;;;;;5068132;28;20498;-64
2023/03/28 05:49:03;;;;;;;11.90;3.55;;;2.50;99.90;;;;;;5070794;28;20048;-63
2023/03/28 05:51:29;;;;;;;11.27;3.08;;;2.50;99.90;;;;;;5070063;28;20384;-63
2023/03/28 05:53:55;;;;;;;10.80;3.28;;;2.40;99.90;;;;;;5070365;28;20480;-63
2023/03/28 05:56:23;;;;;;;6.68;2.83;;;2.40;99.90;;;;;;5071307;28;20159;-63
2023/03/28 05:58:49;;;;;;;8.50;3.47;;;2.40;99.90;;;;;;5069851;28;20040;-63
2023/03/28 06:01:16;;;;;;;7.97;2.97;;;2.30;99.90;;;;;;5071557;28;20044;-64
2023/03/28 06:03:44;;;;;;;7.10;2.67;;;2.30;99.90;;;;;;5070289;28;20059;-63
2023/03/28 06:06:10;;;;;;;5.47;2.53;;;2.30;99.90;;;;;;5074088;28;20052;-62
2023/03/28 06:08:44;;;;;;;6.57;2.85;;;2.30;99.90;;;;;;5075615;28;20045;-63
2023/03/28 06:11:11;;;;;;;7.65;2.80;;;2.30;99.90;;;;;;5075705;28;20052;-63
2023/03/28 06:13:37;;;;;;;10.00;3.45;;;2.30;99.90;;;;;;5075072;28;20453;-63
2023/03/28 06:16:04;;;;;;;5.80;2.70;;;2.30;99.90;;;;;;5073997;28;20056;-63
2023/03/28 06:18:30;;;;;;;9.60;3.88;;;2.30;99.90;;;;;;5075060;28;20055;-63
2023/03/28 06:21:01;;;;;;;8.43;3.75;;;2.30;99.90;;;;;;5074269;28;20056;-63
2023/03/28 06:23:27;;;;;;;6.32;3.35;;;2.30;99.90;;;;;;5073873;28;20041;-63
2023/03/28 06:25:55;;;;;;;6.97;3.50;;;2.20;99.90;;;;;;5074059;28;20052;-63
2023/03/28 06:28:21;;;;;;;6.78;4.15;;;2.20;99.90;;;;;;5056942;28;20049;-63
2023/03/28 06:30:51;;;;;;;9.30;4.38;;;2.30;99.90;;;;;;5057752;28;20059;-63
2023/03/28 06:33:23;;;;;;;8.07;3.30;;;2.40;99.90;;;;;;5073900;28;20121;-63
2023/03/28 06:35:50;;;;;;;8.35;3.45;;;2.60;99.90;;;;;;5057651;28;20049;-63
2023/03/28 06:38:17;;;;;;;7.72;4.13;;;2.90;99.90;;;;;;5057123;28;20051;-63
2023/03/28 06:40:44;;;;;;;5.85;3.42;;;3.10;99.90;;;;;;5073751;28;20053;-63
2023/03/28 06:43:10;;;;;;;8.45;4.05;;;3.30;99.90;;;;;;5074871;28;20114;-63
2023/03/28 06:45:36;;;;;;;7.88;3.95;;;3.60;99.90;;;;;;5074004;28;20049;-63
2023/03/28 06:48:03;;;;;;;10.30;3.72;;;3.80;99.90;;;;;;5073372;28;20040;-64
2023/03/28 06:50:31;;;;;;;7.45;3.50;;;3.80;99.90;;;;;;5073716;28;20052;-64
2023/03/28 06:52:57;;;;;;;11.20;3.95;;;3.80;99.90;;;;;;5075077;28;20052;-63
2023/03/28 06:55:23;;;;;;;8.75;4.13;;;3.90;99.90;;;;;;5073557;28;20052;-62
2023/03/28 06:57:49;;;;;;;6.57;3.30;;;4.40;99.90;;;;;;5073257;28;20048;-63
2023/03/28 07:00:16;;;;;;;7.40;3.17;;;4.70;99.90;;;;;;5074866;28;20175;-63
2023/03/28 07:02:44;;;;;;;7.28;3.60;;;4.80;99.90;;;;;;5074447;28;20044;-63
2023/03/28 07:05:10;;;;;;;7.53;3.17;;;4.90;99.90;;;;;;5073113;28;20463;-63
2023/03/28 07:07:36;;;;;;;6.47;3.45;;;4.90;99.90;;;;;;5073357;28;20083;-64
2023/03/28 07:10:03;;;;;;;5.40;3.38;;;4.90;99.90;;;;;;5056831;28;20433;-64
2023/03/28 07:12:33;;;;;;;6.93;3.50;;;4.90;99.90;;;;;;5073438;28;20060;-63
2023/03/28 07:15:00;;;;;;;7.88;3.53;;;4.90;99.90;;;;;;5072872;28;20540;-64
2023/03/28 07:17:26;;;;;;;5.75;4.10;;;4.90;99.90;;;;;;5072802;28;20160;-64
2023/03/28 07:19:53;;;;;;;9.23;3.72;;;5.00;99.90;;;;;;5073260;28;20055;-65
2023/03/28 07:22:19;;;;;;;8.35;3.25;;;5.00;99.90;;;;;;5056028;28;20064;-63
2023/03/28 07:24:53;;;;;;;7.63;3.25;;;5.10;99.90;;;;;;5073249;28;20044;-64
2023/03/28 07:27:19;;;;;;;8.82;2.83;;;5.10;99.90;;;;;;5055448;28;20052;-65
2023/03/28 07:29:45;;;;;;;4.63;2.60;;;5.10;99.90;;;;;;5074414;28;20045;-64
2023/03/28 07:32:12;;;;;;;7.40;2.92;;;5.00;99.90;;;;;;5072549;28;20059;-63
2023/03/28 07:34:38;;;;;;;8.75;2.88;;;5.10;99.90;;;;;;5072562;28;20056;-64
2023/03/28 07:37:06;;;;;;;6.20;3.33;;;5.10;99.90;;;;;;5072401;28;20048;-64
2023/03/28 07:39:33;;;;;;;7.38;3.22;;;5.20;99.90;;;;;;5074034;28;20420;-63
2023/03/28 07:42:00;;;;;;;7.13;2.75;;;5.30;99.90;;;;;;5072785;28;20053;-63
2023/03/28 07:44:26;;;;;;;7.07;2.90;;;5.40;99.90;;;;;;5072453;28;20093;-63
2023/03/28 07:46:53;;;;;;;8.32;3.17;;;5.50;99.90;;;;;;5073400;28;20068;-63
2023/03/28 07:49:20;;;;;;;6.10;2.53;;;5.70;99.90;;;;;;5073230;28;20049;-64
2023/03/28 07:51:53;;;;;;;6.32;3.30;;;5.80;99.90;;;;;;5072871;28;20432;-63
2023/03/28 07:54:20;;;;;;;6.10;3.00;;;5.80;99.90;;;;;;5062989;28;20037;-63
2023/03/28 07:56:47;;;;;;;8.10;3.45;;;5.90;99.90;;;;;;5072120;28;20048;-64
2023/03/28 07:59:14;;;;;;;7.90;2.35;;;5.90;99.90;;;;;;5071895;28;20385;-65
2023/03/28 08:01:42;;;;;;;4.93;2.80;;;5.90;99.90;;;;;;5072321;28;20060;-64
2023/03/28 08:04:11;;;;;;;5.72;2.13;;;6.10;99.90;;;;;;5072071;28;20062;-65
2023/03/28 08:06:39;;;;;;;9.35;3.03;;;6.20;99.90;;;;;;5071829;28;20060;-63
2023/03/28 08:09:15;;;;;;;7.30;2.50;;;6.30;99.90;;;;;;5072135;28;20058;-64
2023/03/28 08:11:49;;;;;;;5.55;2.42;;;6.40;99.90;;;;;;5055104;28;20445;-65
2023/03/28 08:14:17;;;;;;;6.28;2.13;;;6.50;99.90;;;;;;5061108;28;20040;-64
2023/03/28 08:16:45;;;;;;;4.47;2.22;;;6.60;99.90;;;;;;5071114;28;20044;-64
2023/03/28 08:19:11;;;;;;;4.65;2.53;;;6.70;99.90;;;;;;5055018;28;20060;-65
2023/03/28 08:21:41;;;;;;;6.93;2.10;;;6.80;99.90;;;;;;5062437;28;20487;-64
2023/03/28 08:24:09;;;;;;;4.05;2.10;;;6.90;99.90;;;;;;5044480;28;20056;-63
2023/03/28 08:26:37;;;;;;;6.47;2.10;;;7.10;99.90;;;;;;5026447;28;20049;-65
2023/03/28 08:29:06;;;;;;;5.43;2.00;;;7.30;99.90;;;;;;5034269;28;20056;-64
2023/03/28 08:31:32;;;;;;;7.30;2.65;;;7.40;99.90;;;;;;5052367;28;20053;-64
2023/03/28 08:33:59;;;;;;;4.95;2.50;;;7.40;99.90;;;;;;5045100;28;20401;-63
2023/03/28 08:36:26;;;;;;;5.57;2.22;;;7.30;99.90;;;;;;5051047;28;20056;-64
2023/03/28 08:38:59;;;;;;;6.97;2.42;;;7.30;99.90;;;;;;5034595;28;20484;-64
2023/03/28 08:41:50;;;;;;;7.40;1.70;;;7.20;99.90;;;;;;5034490;28;20052;-63
2023/03/28 08:44:42;;;;;;;4.13;1.73;;;7.30;99.90;;;;;;5044674;28;20045;-64
2023/03/28 08:47:35;;;;;;;8.00;2.55;;;7.40;99.90;;;;;;5017858;28;20342;-63
2023/03/28 08:50:27;;;;;;;5.82;2.15;;;7.50;99.90;;;;;;5047947;28;20049;-63
2023/03/28 08:52:54;;;;;;;3.70;1.73;;;7.50;99.90;;;;;;5052140;28;20045;-64
2023/03/28 08:55:40;;;;;;;5.20;1.90;;;7.60;99.90;;;;;;5051553;28;20114;-64
2023/03/28 08:58:13;;;;;;;5.65;2.58;;;7.70;99.90;;;;;;5051340;28;20354;-63
2023/03/28 09:00:46;;;;;;;5.97;2.35;;;7.60;99.90;;;;;;5051752;28;20052;-65
2023/03/28 09:03:19;;;;;;;6.55;2.28;;;7.70;99.90;;;;;;5033000;28;20111;-64
2023/03/28 09:05:55;;;;;;;4.28;2.08;;;7.60;99.90;;;;;;5008333;28;20120;-65
2023/03/28 09:08:49;;;;;;;5.82;2.42;;;7.70;99.90;;;;;;5032613;28;20400;-65
2023/03/28 09:11:44;;;;;;;5.90;1.85;;;7.60;99.90;;;;;;5034634;28;20140;-63
2023/03/28 09:14:31;;;;;;;3.35;1.90;;;7.50;99.90;;;;;;5033645;28;20056;-64
2023/03/28 09:17:20;;;;;;;6.22;1.90;;;7.60;99.90;;;;;;5034039;28;20068;-64
2023/03/28 09:20:16;;;;;;;4.50;2.25;;;7.70;99.90;;;;;;5017575;28;20059;-64
2023/03/28 09:23:04;;;;;;;;;;;7.70;99.90;;;;;;5044490;28;20049;-63
2023/03/28 09:25:47;;;;;;;5.07;1.38;;;7.80;99.90;;;;;;5053453;28;19920;-64
2023/03/28 09:28:13;;;;;;;3.63;1.25;;;7.90;99.90;;;;;;5071314;28;20441;-64
2023/03/28 09:30:47;;;;;;;3.40;1.50;;;7.90;99.90;;;;;;5053581;28;20057;-64
2023/03/28 09:33:25;;;;;;;3.47;1.50;;;8.00;99.90;;;;;;5052991;28;20053;-65
2023/03/28 09:35:55;;;;;;;3.53;1.50;;;8.00;99.90;;;;;;5011553;28;20052;-64
2023/03/28 09:38:31;;;;;;;3.80;1.75;;;8.10;99.90;;;;;;5033215;28;20049;-64
2023/03/28 09:41:03;;;;;;;4.35;1.73;;;8.00;99.90;;;;;;5033874;28;20057;-63
2023/03/28 09:43:39;;;;;;;5.47;2.03;;;8.10;99.90;;;;;;5053255;28;20115;-62
2023/03/28 09:46:17;;;;;;;7.55;2.10;;;8.30;99.90;;;;;;5053042;28;20048;-63
2023/03/28 09:48:43;;;;;;;;;;;8.30;99.90;;;;;;5049582;28;20342;-64
2023/03/28 09:51:16;;;;;;;6.75;2.13;;;8.30;99.90;;;;;;5050406;28;19928;-64
2023/03/28 09:53:43;;;;;;;5.97;2.20;;;8.30;99.90;;;;;;5053383;28;20048;-63
2023/03/28 09:56:27;;;;;;;5.88;2.05;;;8.40;99.90;;;;;;5070820;28;20056;-63
2023/03/28 09:58:56;;;;;;;7.05;2.40;;;8.40;99.90;;;;;;5071294;28;20059;-64
2023/03/28 10:01:43;;;;;;;5.53;2.13;;;8.50;99.90;;;;;;5071086;28;20058;-63
2023/03/28 10:04:16;;;;;;;3.53;2.20;;;8.50;99.90;;;;;;5070602;28;20484;-64
2023/03/28 10:06:46;;;;;;;5.82;2.25;;;8.50;99.90;;;;;;5070851;28;20041;-64
2023/03/28 10:09:32;;;;;;;4.18;2.15;;;8.60;99.90;;;;;;5053271;28;20045;-65
2023/03/28 10:12:08;;;;;;;5.40;2.40;;;8.60;99.90;;;;;;5068803;28;20048;-63
2023/03/28 10:14:43;;;;;;;5.30;2.25;;;8.50;99.90;;;;;;5052831;28;20572;-64
2023/03/28 10:17:28;;;;;;;5.45;2.55;;;8.50;99.90;;;;;;5053048;28;20175;-64
2023/03/28 10:20:03;;;;;;;6.07;2.80;;;8.50;99.90;;;;;;5070921;28;20048;-64
2023/03/28 10:22:38;;;;;;;4.90;2.70;;;8.50;99.90;;;;;;5053085;28;20358;-64
2023/03/28 10:25:11;;;;;;;7.20;2.80;;;8.40;99.90;;;;;;5070617;28;20036;-64
2023/03/28 10:27:39;;;;;;;4.68;2.33;;;8.50;99.90;;;;;;5053281;28;20048;-63
2023/03/28 10:30:08;;;;;;;7.43;2.13;;;8.40;99.90;;;;;;5052921;28;20055;-64
2023/03/28 10:32:34;;;;;;;5.78;2.78;;;8.30;99.90;;;;;;5062425;28;20349;-64
2023/03/28 10:35:22;;;;;;;5.60;3.30;;;8.30;99.90;;;;;;5069997;28;20377;-64
2023/03/28 10:37:54;;;;;;;7.00;2.83;;;8.20;99.90;;;;;;5053085;28;20083;-63
2023/03/28 10:40:21;;;;;;;8.88;2.63;;;8.30;99.90;;;;;;5036474;28;20052;-64
2023/03/28 10:42:50;;;;;;;4.95;3.15;;;8.30;99.90;;;;;;5052941;28;20109;-64
2023/03/28 10:45:35;;;;;;;6.50;2.80;;;8.30;99.90;;;;;;5052344;28;20048;-64
2023/03/28 10:48:19;;;;;;;5.47;3.22;;;8.30;99.90;;;;;;5052570;28;20055;-64
2023/03/28 10:50:55;;;;;;;6.25;3.20;;;8.40;99.90;;;;;;5054181;28;20467;-64
2023/03/28 10:53:21;;;;;;;5.60;3.30;;;8.50;99.90;;;;;;5056282;28;20061;-64
2023/03/28 10:56:17;;;;;;;6.07;2.50;;;8.60;99.90;;;;;;5056715;28;20045;-64
2023/03/28 10:58:43;;;;;;;4.47;2.80;;;8.70;99.90;;;;;;5056764;28;20067;-64
2023/03/28 11:01:19;;;;;;;4.85;3.00;;;8.80;99.90;;;;;;5056360;28;20458;-64
2023/03/28 11:04:00;;;;;;;4.68;2.97;;;8.80;99.90;;;;;;5055976;28;20040;-64
2023/03/28 11:06:47;;;;;;;5.00;3.22;;;8.80;99.90;;;;;;5055944;28;20530;-63
2023/03/28 11:09:33;;;;;;;7.35;2.92;;;9.00;99.90;;;;;;5023398;28;20044;-63
2023/03/28 11:12:16;;;;;;;5.88;3.45;;;8.90;99.90;;;;;;5056448;28;20376;-63
2023/03/28 11:15:00;;;;;;;6.72;2.95;;;9.10;99.90;;;;;;5049227;28;20079;-63
2023/03/28 11:17:48;;;;;;;5.32;3.38;;;9.10;99.90;;;;;;5073542;28;20098;-64
2023/03/28 11:20:27;;;;;;;5.85;2.80;;;9.10;99.90;;;;;;5056494;28;20056;-63
2023/03/28 11:23:04;;;;;;;5.13;2.60;;;9.10;98.90;;;;;;5073491;28;20055;-63
2023/03/28 11:26:00;;;;;;;6.38;2.72;;;9.20;99.10;;;;;;5048627;28;20048;-64
2023/03/28 11:28:43;;;;;;;6.75;2.63;;;9.30;99.80;;;;;;5073849;28;20045;-64
2023/03/28 11:31:17;;;;;;;6.80;2.50;;;9.30;99.50;;;;;;5073506;28;20045;-63
2023/03/28 11:33:49;;;;;;;5.07;2.75;;;9.40;99.90;;;;;;5052464;28;20380;-64
2023/03/28 11:36:20;;;;;;;6.47;3.08;;;9.60;99.50;;;;;;5053150;28;20122;-63
2023/03/28 11:38:56;;;;;;;6.70;2.42;;;9.70;99.90;;;;;;5056292;28;20052;-63
2023/03/28 11:41:28;;;;;;;5.30;3.08;;;9.70;98.60;;;;;;5073847;28;20465;-64
2023/03/28 11:44:09;;;;;;;8.27;2.70;;;9.70;99.60;;;;;;5050545;28;20044;-64
2023/03/28 11:46:41;;;;;;;5.88;2.13;;;9.70;99.20;;;;;;5047126;28;20056;-63
2023/03/28 11:49:23;;;;;;;4.95;2.47;;;9.70;99.80;;;;;;5073374;28;20432;-64
2023/03/28 11:51:59;;;;;;;5.95;2.58;;;9.70;99.60;;;;;;5055645;28;20048;-63
2023/03/28 11:54:36;;;;;;;5.22;2.50;;;9.90;99.90;;;;;;5054907;28;20491;-63
2023/03/28 11:57:35;;;;;;;7.18;3.03;;;9.90;99.20;;;;;;5072894;28;20062;-64
2023/03/28 12:00:19;;;;;;;4.95;2.70;;;9.80;98.80;;;;;;4997958;28;20079;-63
2023/03/28 12:02:51;;;;;;;5.50;2.70;;;9.70;99.50;;;;;;5030735;28;20057;-63
2023/03/28 12:05:34;;;;;;;5.88;2.67;;;9.60;99.20;;;;;;5049668;28;20048;-64
2023/03/28 12:08:07;;;;;;;5.95;2.90;;;9.60;99.50;;;;;;5054804;28;20052;-64
2023/03/28 12:10:36;;;;;;;5.30;2.53;;;9.60;99.90;;;;;;5047247;28;20060;-63
2023/03/28 12:13:14;;;;;;;5.30;2.83;;;9.70;99.70;;;;;;5072965;28;20045;-64
2023/03/28 12:15:57;;;;;;;6.72;2.80;;;9.70;99.60;;;;;;5048416;28;20471;-63
2023/03/28 12:18:27;;;;;;;7.72;3.22;;;9.60;99.70;;;;;;5073013;28;20048;-65
2023/03/28 12:21:09;;;;;;;7.30;2.78;;;9.50;99.90;;;;;;5072296;28;20456;-65
2023/03/28 12:23:39;;;;;;;7.57;3.03;;;9.60;99.80;;;;;;5053110;28;20379;-64
2023/03/28 12:26:35;;;;;;;6.93;2.90;;;9.50;99.00;;;;;;5050805;28;20445;-64
2023/03/28 12:29:15;;;;;;;5.15;3.55;;;9.40;99.00;;;;;;5072865;28;20052;-64
2023/03/28 12:31:42;;;;;;;5.82;3.03;;;9.50;99.30;;;;;;5038877;28;20380;-63
2023/03/28 12:34:22;;;;;;;7.18;2.60;;;9.50;99.20;;;;;;5048258;28;20045;-65
2023/03/28 12:37:02;;;;;;;6.90;3.67;;;9.60;99.60;;;;;;5048272;28;20052;-63
2023/03/28 12:39:44;;;;;;;6.28;2.70;;;9.60;98.80;;;;;;5072284;28;20484;-63
2023/03/28 12:42:14;;;;;;;8.88;3.20;;;9.50;98.60;;;;;;5072321;28;20063;-64
2023/03/28 12:44:45;;;;;;;5.28;2.85;;;9.60;98.90;;;;;;5071526;28;20417;-64
2023/03/28 12:47:19;;;;;;;3.60;2.53;;;9.70;98.90;;;;;;5054281;28;20048;-64
2023/03/28 12:49:57;;;;;;;6.38;2.72;;;9.80;98.20;;;;;;5054834;28;20066;-65
2023/03/28 12:52:29;;;;;;;6.20;2.80;;;9.70;97.60;;;;;;5054810;28;20048;-64
2023/03/28 12:55:02;;;;;;;5.82;3.83;;;9.70;98.20;;;;;;5053847;28;20064;-65
2023/03/28 12:57:48;;;;;;;5.43;2.63;;;9.80;98.20;;;;;;5071946;28;20044;-65
2023/03/28 13:00:29;;;;;;;5.05;3.15;;;9.80;98.00;;;;;;5054280;28;20052;-64
2023/03/28 13:03:29;;;;;;;6.22;3.08;;;9.70;97.50;;;;;;5071766;28;20067;-63
2023/03/28 13:06:10;;;;;;;5.78;3.50;;;9.70;98.10;;;;;;5051550;28;20061;-63
2023/03/28 13:09:05;;;;;;;5.07;2.95;;;9.80;98.30;;;;;;5034100;28;20281;-64
2023/03/28 13:12:06;;;;;;;5.18;2.88;;;10.00;97.90;;;;;;5052023;28;20049;-63
2023/03/28 13:14:37;;;;;;;5.10;2.85;;;9.90;96.70;;;;;;5043573;28;20052;-64
2023/03/28 13:17:23;;;;;;;6.18;3.10;;;9.90;97.30;;;;;;5071267;28;20110;-65
2023/03/28 13:20:06;;;;;;;5.53;2.97;;;10.00;97.10;;;;;;5071762;28;20056;-64
2023/03/28 13:22:48;;;;;;;6.88;3.30;;;10.00;97.50;;;;;;5037369;28;20056;-65
2023/03/28 13:25:34;;;;;;;5.80;2.83;;;10.00;97.40;;;;;;5071181;28;20404;-65
2023/03/28 13:28:10;;;;;;;8.23;3.67;;;10.10;97.20;;;;;;5071272;28;20040;-65
2023/03/28 13:30:39;;;;;;;4.55;2.95;;;10.00;96.80;;;;;;5053459;28;20475;-65